This is the latest recevied weather packets stored in our database for station/object KW4UJ. If no packets are shown the sender has not sent any weather packets the latest 10 day(s).
| Time | Temp. | Humidity | Pressure | Rain* | Wind** | Luminosity | Snow |
|---|---|---|---|---|---|---|---|
| 1777068154 | 22.22° C | 60% | 1007.1 hPa | 0 mm | - | 126 W/m² | - |
| 1777067849 | 22.22° C | 60% | 1007.1 hPa | 0 mm | - | 137 W/m² | - |
| 1777067548 | 22.78° C | 59% | 1007.4 hPa | 0 mm | - | 154 W/m² | - |
| 1777067246 | 22.78° C | 58% | 1008 hPa | 0 mm | - | 78 W/m² | - |
| 1777066943 | 23.33° C | 56% | 1008 hPa | 0 mm | - | 71 W/m² | - |
| 1777066638 | 23.33° C | 55% | 1007.6 hPa | 0 mm | - | 68 W/m² | - |
| 1777066335 | 23.33° C | 56% | 1007.5 hPa | 0 mm | - | 78 W/m² | - |
| 1777066029 | 23.89° C | 55% | 1007.4 hPa | 0 mm | - | 67 W/m² | - |
| 1777065724 | 23.89° C | 54% | 1007.6 hPa | 0 mm | - | 61 W/m² | - |
| 1777065420 | 24.44° C | 55% | 1007.5 hPa | 0 mm | - | 67 W/m² | - |
| 1777065114 | 25° C | 54% | 1007.2 hPa | 0 mm | - | 114 W/m² | - |
| 1777064813 | 25.56° C | 52% | 1007.1 hPa | 0 mm | - | 106 W/m² | - |
| 1777064508 | 26.11° C | 51% | 1006.9 hPa | 0 mm | - | 111 W/m² | - |
| 1777064205 | 26.67° C | 47% | 1007.1 hPa | 0 mm | - | 363 W/m² | - |
| 1777063900 | 26.11° C | 48% | 1007 hPa | 0 mm | - | 344 W/m² | - |
| 1777063594 | 26.11° C | 48% | 1007 hPa | 0 mm | - | 282 W/m² | - |
| 1777063289 | 26.11° C | 48% | 1007.2 hPa | 0 mm | - | 374 W/m² | - |
| 1777062987 | 26.11° C | 48% | 1007 hPa | 0 mm | - | 240 W/m² | - |
| 1777062684 | 25.56° C | 50% | 1006.9 hPa | 0 mm | - | 385 W/m² | - |
| 1777062382 | 24.44° C | 54% | 1007 hPa | 0 mm | - | 283 W/m² | - |
| 1777062080 | 25° C | 53% | 1006.8 hPa | 0 mm | - | 136 W/m² | - |
| 1777061776 | 25° C | 54% | 1006.9 hPa | 0 mm | - | 145 W/m² | - |
| 1777061472 | 26.11° C | 52% | 1007 hPa | 0 mm | - | 153 W/m² | - |
| 1777061169 | 26.67° C | 50% | 1006.7 hPa | 0 mm | - | 285 W/m² | - |
| 1777060863 | 26.67° C | 50% | 1006.6 hPa | 0 mm | - | 496 W/m² | - |
* Rain latest hour (hover to see other rain measurements)
** Current wind speed in m/s (hover to see current wind gust speed)